sensor_id;sensor_type;location;lat;lon;timestamp;pressure;altitude;pressure_sealevel;temperature
42197;BMP280;27866;48.146;17.098;2022-09-13T00:00:58;99554.44;;;17.06
42197;BMP280;27866;48.146;17.098;2022-09-13T00:05:10;99551.28;;;17.02
42197;BMP280;27866;48.146;17.098;2022-09-13T00:09:21;99553.53;;;16.97
42197;BMP280;27866;48.146;17.098;2022-09-13T00:13:33;99548.31;;;16.97
42197;BMP280;27866;48.146;17.098;2022-09-13T00:17:44;99555.91;;;16.91
42197;BMP280;27866;48.146;17.098;2022-09-13T00:21:56;99548.06;;;16.91
42197;BMP280;27866;48.146;17.098;2022-09-13T00:26:15;99540.53;;;16.88
42197;BMP280;27866;48.146;17.098;2022-09-13T00:30:26;99545.25;;;16.85
42197;BMP280;27866;48.146;17.098;2022-09-13T00:34:38;99543.06;;;16.81
42197;BMP280;27866;48.146;17.098;2022-09-13T00:38:49;99545.13;;;16.77
42197;BMP280;27866;48.146;17.098;2022-09-13T00:43:01;99540.31;;;16.73
42197;BMP280;27866;48.146;17.098;2022-09-13T00:47:16;99537.19;;;16.69
42197;BMP280;27866;48.146;17.098;2022-09-13T00:51:29;99535.69;;;16.67
42197;BMP280;27866;48.146;17.098;2022-09-13T00:55:56;99526.31;;;16.65
42197;BMP280;27866;48.146;17.098;2022-09-13T01:00:15;99526.13;;;16.58
42197;BMP280;27866;48.146;17.098;2022-09-13T01:04:28;99524.19;;;16.51
42197;BMP280;27866;48.146;17.098;2022-09-13T01:08:44;99523.00;;;16.46
42197;BMP280;27866;48.146;17.098;2022-09-13T01:13:05;99521.38;;;16.45
42197;BMP280;27866;48.146;17.098;2022-09-13T01:17:27;99522.47;;;16.42
42197;BMP280;27866;48.146;17.098;2022-09-13T01:40:16;99502.50;;;16.24
42197;BMP280;27866;48.146;17.098;2022-09-13T01:49:30;99494.56;;;16.17
42197;BMP280;27866;48.146;17.098;2022-09-13T01:58:30;99491.28;;;16.15
42197;BMP280;27866;48.146;17.098;2022-09-13T02:03:01;99482.88;;;16.11
42197;BMP280;27866;48.146;17.098;2022-09-13T02:07:23;99487.44;;;16.09
42197;BMP280;27866;48.146;17.098;2022-09-13T02:11:36;99478.78;;;16.09
42197;BMP280;27866;48.146;17.098;2022-09-13T02:15:57;99474.53;;;16.08
42197;BMP280;27866;48.146;17.098;2022-09-13T02:20:30;99480.72;;;16.07
42197;BMP280;27866;48.146;17.098;2022-09-13T02:24:47;99478.78;;;16.09
42197;BMP280;27866;48.146;17.098;2022-09-13T02:29:07;99472.88;;;16.07
42197;BMP280;27866;48.146;17.098;2022-09-13T02:33:28;99478.78;;;16.09
42197;BMP280;27866;48.146;17.098;2022-09-13T02:37:44;99464.06;;;16.08
42197;BMP280;27866;48.146;17.098;2022-09-13T02:42:21;99464.22;;;16.07
42197;BMP280;27866;48.146;17.098;2022-09-13T02:51:35;99455.03;;;16.03
42197;BMP280;27866;48.146;17.098;2022-09-13T02:56:19;99442.56;;;15.97
42197;BMP280;27866;48.146;17.098;2022-09-13T03:00:32;99454.09;;;15.94
42197;BMP280;27866;48.146;17.098;2022-09-13T03:04:44;99452.47;;;15.94
42197;BMP280;27866;48.146;17.098;2022-09-13T03:09:00;99449.19;;;15.92
42197;BMP280;27866;48.146;17.098;2022-09-13T03:13:39;99455.66;;;15.88
42197;BMP280;27866;48.146;17.098;2022-09-13T03:41:34;99435.25;;;15.65
42197;BMP280;27866;48.146;17.098;2022-09-13T03:45:59;99429.50;;;15.62
42197;BMP280;27866;48.146;17.098;2022-09-13T03:50:19;99441.56;;;15.63
42197;BMP280;27866;48.146;17.098;2022-09-13T03:54:32;99434.41;;;15.65
42197;BMP280;27866;48.146;17.098;2022-09-13T03:58:47;99439.63;;;15.65
42197;BMP280;27866;48.146;17.098;2022-09-13T04:02:59;99435.09;;;15.66
42197;BMP280;27866;48.146;17.098;2022-09-13T04:07:22;99430.03;;;15.65
42197;BMP280;27866;48.146;17.098;2022-09-13T04:11:34;99424.28;;;15.62
42197;BMP280;27866;48.146;17.098;2022-09-13T04:15:45;99429.66;;;15.60
42197;BMP280;27866;48.146;17.098;2022-09-13T04:19:57;99439.25;;;15.60
42197;BMP280;27866;48.146;17.098;2022-09-13T04:24:08;99432.25;;;15.60
42197;BMP280;27866;48.146;17.098;2022-09-13T04:28:21;99447.91;;;15.60
42197;BMP280;27866;48.146;17.098;2022-09-13T04:32:32;99452.44;;;15.58
42197;BMP280;27866;48.146;17.098;2022-09-13T04:36:45;99459.97;;;15.61
42197;BMP280;27866;48.146;17.098;2022-09-13T04:40:57;99461.88;;;15.68
42197;BMP280;27866;48.146;17.098;2022-09-13T04:45:09;99467.06;;;15.78
42197;BMP280;27866;48.146;17.098;2022-09-13T04:49:20;99456.19;;;15.91
42197;BMP280;27866;48.146;17.098;2022-09-13T04:53:32;99459.16;;;16.05
42197;BMP280;27866;48.146;17.098;2022-09-13T04:57:44;99458.38;;;16.22
42197;BMP280;27866;48.146;17.098;2022-09-13T05:01:56;99459.75;;;16.42
42197;BMP280;27866;48.146;17.098;2022-09-13T05:06:13;99460.44;;;16.61
42197;BMP280;27866;48.146;17.098;2022-09-13T05:10:25;99460.63;;;16.77
42197;BMP280;27866;48.146;17.098;2022-09-13T05:14:36;99459.09;;;16.74
42197;BMP280;27866;48.146;17.098;2022-09-13T05:18:48;99463.50;;;16.74
42197;BMP280;27866;48.146;17.098;2022-09-13T05:22:59;99468.69;;;16.66
42197;BMP280;27866;48.146;17.098;2022-09-13T05:27:10;99466.78;;;16.85
42197;BMP280;27866;48.146;17.098;2022-09-13T05:31:28;99478.78;;;16.95
42197;BMP280;27866;48.146;17.098;2022-09-13T05:35:41;99478.34;;;16.99
42197;BMP280;27866;48.146;17.098;2022-09-13T05:39:52;99473.47;;;17.04
42197;BMP280;27866;48.146;17.098;2022-09-13T05:44:03;99470.34;;;17.18
42197;BMP280;27866;48.146;17.098;2022-09-13T05:48:15;99469.66;;;17.16
42197;BMP280;27866;48.146;17.098;2022-09-13T05:52:26;99467.69;;;17.35
42197;BMP280;27866;48.146;17.098;2022-09-13T05:56:38;99478.00;;;19.14
42197;BMP280;27866;48.146;17.098;2022-09-13T06:00:54;99473.38;;;22.94
42197;BMP280;27866;48.146;17.098;2022-09-13T06:05:10;99457.25;;;25.97
42197;BMP280;27866;48.146;17.098;2022-09-13T06:09:22;99457.34;;;27.01
42197;BMP280;27866;48.146;17.098;2022-09-13T06:13:34;99455.78;;;28.53
42197;BMP280;27866;48.146;17.098;2022-09-13T06:17:46;99451.78;;;29.25
42197;BMP280;27866;48.146;17.098;2022-09-13T06:21:57;99460.19;;;29.39
42197;BMP280;27866;48.146;17.098;2022-09-13T06:26:12;99453.84;;;28.66
42197;BMP280;27866;48.146;17.098;2022-09-13T06:30:23;99449.69;;;27.46
42197;BMP280;27866;48.146;17.098;2022-09-13T06:34:35;99446.09;;;24.80
42197;BMP280;27866;48.146;17.098;2022-09-13T06:38:48;99450.16;;;22.70
42197;BMP280;27866;48.146;17.098;2022-09-13T06:42:59;99462.25;;;21.66
42197;BMP280;27866;48.146;17.098;2022-09-13T06:47:11;99462.13;;;21.24
42197;BMP280;27866;48.146;17.098;2022-09-13T06:51:24;99462.88;;;20.97
42197;BMP280;27866;48.146;17.098;2022-09-13T06:55:35;99459.66;;;20.79
42197;BMP280;27866;48.146;17.098;2022-09-13T06:59:47;99455.47;;;20.63
42197;BMP280;27866;48.146;17.098;2022-09-13T07:04:10;99451.19;;;20.40
42197;BMP280;27866;48.146;17.098;2022-09-13T07:08:22;99448.22;;;20.35
42197;BMP280;27866;48.146;17.098;2022-09-13T07:12:34;99453.47;;;21.88
42197;BMP280;27866;48.146;17.098;2022-09-13T07:16:46;99437.28;;;24.28
42197;BMP280;27866;48.146;17.098;2022-09-13T07:21:03;99448.25;;;23.39
42197;BMP280;27866;48.146;17.098;2022-09-13T07:25:15;99452.09;;;22.34
42197;BMP280;27866;48.146;17.098;2022-09-13T07:29:27;99449.84;;;23.13
42197;BMP280;27866;48.146;17.098;2022-09-13T07:33:40;99461.31;;;22.23
42197;BMP280;27866;48.146;17.098;2022-09-13T07:37:52;99442.97;;;25.16
42197;BMP280;27866;48.146;17.098;2022-09-13T07:42:04;99453.63;;;22.91
42197;BMP280;27866;48.146;17.098;2022-09-13T07:46:19;99446.84;;;21.77
42197;BMP280;27866;48.146;17.098;2022-09-13T07:50:31;99437.22;;;21.48
42197;BMP280;27866;48.146;17.098;2022-09-13T07:54:42;99444.13;;;22.41
42197;BMP280;27866;48.146;17.098;2022-09-13T07:58:54;99431.13;;;25.81
42197;BMP280;27866;48.146;17.098;2022-09-13T08:03:07;99437.41;;;26.12
42197;BMP280;27866;48.146;17.098;2022-09-13T08:07:21;99438.56;;;23.99
42197;BMP280;27866;48.146;17.098;2022-09-13T08:11:44;99448.06;;;22.65
42197;BMP280;27866;48.146;17.098;2022-09-13T08:15:56;99444.13;;;22.27
42197;BMP280;27866;48.146;17.098;2022-09-13T08:20:10;99444.94;;;22.00
42197;BMP280;27866;48.146;17.098;2022-09-13T08:24:22;99461.06;;;22.05
42197;BMP280;27866;48.146;17.098;2022-09-13T08:28:38;99451.75;;;22.36
42197;BMP280;27866;48.146;17.098;2022-09-13T08:32:53;99452.06;;;22.76
42197;BMP280;27866;48.146;17.098;2022-09-13T08:37:04;99443.22;;;23.44
42197;BMP280;27866;48.146;17.098;2022-09-13T08:46:25;99432.19;;;23.87
42197;BMP280;27866;48.146;17.098;2022-09-13T08:50:37;99445.25;;;23.95
42197;BMP280;27866;48.146;17.098;2022-09-13T08:54:49;99435.31;;;23.97
42197;BMP280;27866;48.146;17.098;2022-09-13T08:59:08;99445.97;;;24.42
42197;BMP280;27866;48.146;17.098;2022-09-13T09:03:41;99445.09;;;26.93
42197;BMP280;27866;48.146;17.098;2022-09-13T09:08:07;99434.84;;;28.74
42197;BMP280;27866;48.146;17.098;2022-09-13T09:12:32;99429.16;;;27.77
42197;BMP280;27866;48.146;17.098;2022-09-13T09:21:15;99428.47;;;37.08
42197;BMP280;27866;48.146;17.098;2022-09-13T09:25:27;99426.69;;;39.02
42197;BMP280;27866;48.146;17.098;2022-09-13T09:29:38;99411.78;;;39.89
42197;BMP280;27866;48.146;17.098;2022-09-13T09:38:41;99401.84;;;39.84
42197;BMP280;27866;48.146;17.098;2022-09-13T09:42:53;99387.59;;;37.94
42197;BMP280;27866;48.146;17.098;2022-09-13T09:47:22;99385.59;;;35.05
42197;BMP280;27866;48.146;17.098;2022-09-13T09:51:34;99372.13;;;32.37
42197;BMP280;27866;48.146;17.098;2022-09-13T10:00:11;99378.75;;;36.53
42197;BMP280;27866;48.146;17.098;2022-09-13T10:04:23;99378.34;;;37.35
42197;BMP280;27866;48.146;17.098;2022-09-13T10:08:39;99360.00;;;36.90
42197;BMP280;27866;48.146;17.098;2022-09-13T10:12:54;99363.56;;;35.47
42197;BMP280;27866;48.146;17.098;2022-09-13T10:17:25;99340.13;;;37.78
42197;BMP280;27866;48.146;17.098;2022-09-13T10:21:37;99332.25;;;38.95
42197;BMP280;27866;48.146;17.098;2022-09-13T10:26:19;99324.75;;;39.72
42197;BMP280;27866;48.146;17.098;2022-09-13T10:30:45;99319.31;;;40.16
42197;BMP280;27866;48.146;17.098;2022-09-13T10:35:14;99310.50;;;39.49
42197;BMP280;27866;48.146;17.098;2022-09-13T10:39:30;99317.47;;;40.38
42197;BMP280;27866;48.146;17.098;2022-09-13T10:43:42;99319.75;;;41.31
42197;BMP280;27866;48.146;17.098;2022-09-13T10:48:01;99323.97;;;41.58
42197;BMP280;27866;48.146;17.098;2022-09-13T10:52:47;99316.50;;;40.60
42197;BMP280;27866;48.146;17.098;2022-09-13T10:57:28;99319.63;;;40.54
42197;BMP280;27866;48.146;17.098;2022-09-13T11:02:26;99316.28;;;40.18
42197;BMP280;27866;48.146;17.098;2022-09-13T11:06:53;99318.59;;;41.10
42197;BMP280;27866;48.146;17.098;2022-09-13T11:16:52;99287.97;;;42.74
42197;BMP280;27866;48.146;17.098;2022-09-13T11:21:37;99283.19;;;42.96
42197;BMP280;27866;48.146;17.098;2022-09-13T11:26:06;99285.97;;;43.04
42197;BMP280;27866;48.146;17.098;2022-09-13T11:30:20;99275.31;;;43.35
42197;BMP280;27866;48.146;17.098;2022-09-13T11:44:30;99270.34;;;45.10
42197;BMP280;27866;48.146;17.098;2022-09-13T11:58:13;99254.66;;;44.99
42197;BMP280;27866;48.146;17.098;2022-09-13T12:02:44;99257.00;;;45.60
42197;BMP280;27866;48.146;17.098;2022-09-13T12:07:06;99241.50;;;45.64
42197;BMP280;27866;48.146;17.098;2022-09-13T12:11:30;99230.94;;;45.97
42197;BMP280;27866;48.146;17.098;2022-09-13T12:15:46;99226.03;;;46.14
42197;BMP280;27866;48.146;17.098;2022-09-13T12:20:01;99230.41;;;46.38
42197;BMP280;27866;48.146;17.098;2022-09-13T12:28:55;99194.88;;;46.42
42197;BMP280;27866;48.146;17.098;2022-09-13T12:33:07;99188.97;;;46.78
42197;BMP280;27866;48.146;17.098;2022-09-13T12:56:02;99160.66;;;45.78
42197;BMP280;27866;48.146;17.098;2022-09-13T13:00:28;99153.47;;;46.20
42197;BMP280;27866;48.146;17.098;2022-09-13T13:04:41;99149.13;;;46.19
42197;BMP280;27866;48.146;17.098;2022-09-13T13:08:57;99142.81;;;46.80
42197;BMP280;27866;48.146;17.098;2022-09-13T13:13:13;99143.34;;;46.59
42197;BMP280;27866;48.146;17.098;2022-09-13T13:17:46;99144.03;;;46.44
42197;BMP280;27866;48.146;17.098;2022-09-13T13:26:57;99123.34;;;46.58
42197;BMP280;27866;48.146;17.098;2022-09-13T13:35:46;99126.72;;;45.36
42197;BMP280;27866;48.146;17.098;2022-09-13T13:40:33;99117.00;;;44.95
42197;BMP280;27866;48.146;17.098;2022-09-13T13:53:54;99122.88;;;45.72
42197;BMP280;27866;48.146;17.098;2022-09-13T14:02:44;99093.59;;;45.06
42197;BMP280;27866;48.146;17.098;2022-09-13T14:21:04;99046.38;;;43.39
42197;BMP280;27866;48.146;17.098;2022-09-13T14:25:28;99060.72;;;42.34
42197;BMP280;27866;48.146;17.098;2022-09-13T14:29:45;99054.47;;;41.08
42197;BMP280;27866;48.146;17.098;2022-09-13T14:33:57;99028.50;;;37.05
42197;BMP280;27866;48.146;17.098;2022-09-13T14:38:24;99048.59;;;34.60
42197;BMP280;27866;48.146;17.098;2022-09-13T14:42:44;99039.38;;;33.78
42197;BMP280;27866;48.146;17.098;2022-09-13T14:47:17;99053.09;;;34.93
42197;BMP280;27866;48.146;17.098;2022-09-13T14:51:58;99037.59;;;35.42
42197;BMP280;27866;48.146;17.098;2022-09-13T14:56:41;99038.13;;;34.10
42197;BMP280;27866;48.146;17.098;2022-09-13T15:01:02;99048.78;;;33.95
42197;BMP280;27866;48.146;17.098;2022-09-13T15:05:18;99032.31;;;37.26
42197;BMP280;27866;48.146;17.098;2022-09-13T15:09:30;99039.00;;;38.59
42197;BMP280;27866;48.146;17.098;2022-09-13T15:13:42;99018.22;;;37.70
42197;BMP280;27866;48.146;17.098;2022-09-13T15:17:56;99025.19;;;36.90
42197;BMP280;27866;48.146;17.098;2022-09-13T15:22:27;99010.31;;;36.05
42197;BMP280;27866;48.146;17.098;2022-09-13T15:26:39;99015.91;;;33.40
42197;BMP280;27866;48.146;17.098;2022-09-13T15:30:51;99015.81;;;32.05
42197;BMP280;27866;48.146;17.098;2022-09-13T15:35:22;99009.66;;;33.25
42197;BMP280;27866;48.146;17.098;2022-09-13T15:40:06;99013.94;;;32.72
42197;BMP280;27866;48.146;17.098;2022-09-13T15:44:18;99010.75;;;31.32
42197;BMP280;27866;48.146;17.098;2022-09-13T15:48:35;99015.31;;;30.37
42197;BMP280;27866;48.146;17.098;2022-09-13T15:52:46;99016.31;;;29.72
42197;BMP280;27866;48.146;17.098;2022-09-13T15:56:58;99013.88;;;29.17
42197;BMP280;27866;48.146;17.098;2022-09-13T16:01:13;99002.03;;;28.75
42197;BMP280;27866;48.146;17.098;2022-09-13T16:05:25;98996.50;;;28.20
42197;BMP280;27866;48.146;17.098;2022-09-13T16:09:38;98994.81;;;27.86
42197;BMP280;27866;48.146;17.098;2022-09-13T16:13:49;98995.41;;;27.48
42197;BMP280;27866;48.146;17.098;2022-09-13T16:18:01;98997.31;;;27.13
42197;BMP280;27866;48.146;17.098;2022-09-13T16:22:12;99003.66;;;26.77
42197;BMP280;27866;48.146;17.098;2022-09-13T16:26:32;99001.31;;;26.52
42197;BMP280;27866;48.146;17.098;2022-09-13T16:30:45;99005.78;;;26.34
42197;BMP280;27866;48.146;17.098;2022-09-13T16:34:56;99010.75;;;26.25
42197;BMP280;27866;48.146;17.098;2022-09-13T16:39:08;99006.28;;;26.25
42197;BMP280;27866;48.146;17.098;2022-09-13T16:43:19;99011.59;;;26.25
42197;BMP280;27866;48.146;17.098;2022-09-13T16:47:31;99006.28;;;26.25
42197;BMP280;27866;48.146;17.098;2022-09-13T16:51:42;99004.75;;;26.12
42197;BMP280;27866;48.146;17.098;2022-09-13T16:56:07;99002.06;;;25.94
42197;BMP280;27866;48.146;17.098;2022-09-13T17:00:19;98999.94;;;25.79
42197;BMP280;27866;48.146;17.098;2022-09-13T17:04:30;98995.56;;;25.67
42197;BMP280;27866;48.146;17.098;2022-09-13T17:08:48;98996.88;;;25.52
42197;BMP280;27866;48.146;17.098;2022-09-13T17:13:00;98999.56;;;25.45
42197;BMP280;27866;48.146;17.098;2022-09-13T17:17:13;99009.03;;;25.35
42197;BMP280;27866;48.146;17.098;2022-09-13T17:21:29;99003.38;;;25.26
42197;BMP280;27866;48.146;17.098;2022-09-13T17:25:47;99015.22;;;25.17
42197;BMP280;27866;48.146;17.098;2022-09-13T17:29:58;99003.47;;;25.07
42197;BMP280;27866;48.146;17.098;2022-09-13T17:34:12;98998.78;;;25.02
42197;BMP280;27866;48.146;17.098;2022-09-13T17:38:24;99006.19;;;24.88
42197;BMP280;27866;48.146;17.098;2022-09-13T17:42:35;99005.59;;;24.80
42197;BMP280;27866;48.146;17.098;2022-09-13T17:46:46;99007.44;;;24.79
42197;BMP280;27866;48.146;17.098;2022-09-13T17:51:10;99009.69;;;24.76
42197;BMP280;27866;48.146;17.098;2022-09-13T17:55:21;99009.69;;;24.82
42197;BMP280;27866;48.146;17.098;2022-09-13T17:59:33;98997.06;;;24.78
42197;BMP280;27866;48.146;17.098;2022-09-13T18:03:44;99004.63;;;24.68
42197;BMP280;27866;48.146;17.098;2022-09-13T18:07:56;98997.91;;;24.66
42197;BMP280;27866;48.146;17.098;2022-09-13T18:12:07;98999.16;;;24.57
42197;BMP280;27866;48.146;17.098;2022-09-13T18:16:24;99004.06;;;24.54
42197;BMP280;27866;48.146;17.098;2022-09-13T18:20:35;99015.06;;;24.51
42197;BMP280;27866;48.146;17.098;2022-09-13T18:24:47;99012.84;;;24.48
42197;BMP280;27866;48.146;17.098;2022-09-13T18:29:01;99018.94;;;24.48
42197;BMP280;27866;48.146;17.098;2022-09-13T18:33:13;99026.28;;;24.46
42197;BMP280;27866;48.146;17.098;2022-09-13T18:37:26;99023.81;;;24.57
42197;BMP280;27866;48.146;17.098;2022-09-13T18:41:38;99017.47;;;24.58
42197;BMP280;27866;48.146;17.098;2022-09-13T18:45:58;99026.06;;;24.54
42197;BMP280;27866;48.146;17.098;2022-09-13T18:50:10;99030.75;;;24.52
42197;BMP280;27866;48.146;17.098;2022-09-13T18:54:23;99023.16;;;24.62
42197;BMP280;27866;48.146;17.098;2022-09-13T18:58:36;99025.63;;;24.57
42197;BMP280;27866;48.146;17.098;2022-09-13T19:02:48;99025.03;;;24.55
42197;BMP280;27866;48.146;17.098;2022-09-13T19:07:00;99023.66;;;24.46
42197;BMP280;27866;48.146;17.098;2022-09-13T19:11:15;99019.13;;;24.47
42197;BMP280;27866;48.146;17.098;2022-09-13T19:15:26;99014.66;;;24.47
42197;BMP280;27866;48.146;17.098;2022-09-13T19:19:38;99016.31;;;24.42
42197;BMP280;27866;48.146;17.098;2022-09-13T19:23:50;99021.41;;;24.24
42197;BMP280;27866;48.146;17.098;2022-09-13T19:28:02;99019.16;;;24.28
42197;BMP280;27866;48.146;17.098;2022-09-13T19:32:13;99025.88;;;24.11
42197;BMP280;27866;48.146;17.098;2022-09-13T19:36:26;99031.59;;;23.96
42197;BMP280;27866;48.146;17.098;2022-09-13T19:40:38;99024.44;;;23.65
42197;BMP280;27866;48.146;17.098;2022-09-13T19:44:49;99019.50;;;23.37
42197;BMP280;27866;48.146;17.098;2022-09-13T19:49:02;99025.19;;;23.22
42197;BMP280;27866;48.146;17.098;2022-09-13T19:53:13;99013.50;;;23.04
42197;BMP280;27866;48.146;17.098;2022-09-13T19:57:25;99008.97;;;22.92
42197;BMP280;27866;48.146;17.098;2022-09-13T20:01:42;99005.50;;;22.85
42197;BMP280;27866;48.146;17.098;2022-09-13T20:05:59;99002.66;;;22.80
42197;BMP280;27866;48.146;17.098;2022-09-13T20:10:11;99011.13;;;22.69
42197;BMP280;27866;48.146;17.098;2022-09-13T20:14:22;98998.88;;;22.50
42197;BMP280;27866;48.146;17.098;2022-09-13T20:18:34;98999.34;;;22.33
42197;BMP280;27866;48.146;17.098;2022-09-13T20:22:45;98993.81;;;22.21
42197;BMP280;27866;48.146;17.098;2022-09-13T20:26:56;99003.25;;;22.10
42197;BMP280;27866;48.146;17.098;2022-09-13T20:31:09;98999.94;;;22.02
42197;BMP280;27866;48.146;17.098;2022-09-13T20:35:20;98998.91;;;21.96
42197;BMP280;27866;48.146;17.098;2022-09-13T20:39:33;98986.47;;;21.91
42197;BMP280;27866;48.146;17.098;2022-09-13T20:43:44;98989.66;;;21.80
42197;BMP280;27866;48.146;17.098;2022-09-13T20:47:56;98977.03;;;21.76
42197;BMP280;27866;48.146;17.098;2022-09-13T20:52:08;98983.25;;;21.68
42197;BMP280;27866;48.146;17.098;2022-09-13T20:56:19;98984.19;;;21.61
42197;BMP280;27866;48.146;17.098;2022-09-13T21:00:30;98979.72;;;21.62
42197;BMP280;27866;48.146;17.098;2022-09-13T21:04:43;98989.50;;;21.67
42197;BMP280;27866;48.146;17.098;2022-09-13T21:08:55;98978.03;;;21.75
42197;BMP280;27866;48.146;17.098;2022-09-13T21:13:09;98976.91;;;21.83
42197;BMP280;27866;48.146;17.098;2022-09-13T21:17:21;98986.91;;;21.94
42197;BMP280;27866;48.146;17.098;2022-09-13T21:21:38;98987.38;;;22.04
42197;BMP280;27866;48.146;17.098;2022-09-13T21:25:49;98993.69;;;22.03
42197;BMP280;27866;48.146;17.098;2022-09-13T21:30:02;98984.88;;;21.96
42197;BMP280;27866;48.146;17.098;2022-09-13T21:34:16;98983.78;;;21.84
42197;BMP280;27866;48.146;17.098;2022-09-13T21:38:31;98983.13;;;21.76
42197;BMP280;27866;48.146;17.098;2022-09-13T21:42:42;98968.41;;;21.67
42197;BMP280;27866;48.146;17.098;2022-09-13T21:46:54;98973.38;;;21.56
42197;BMP280;27866;48.146;17.098;2022-09-13T21:51:31;98961.09;;;21.43
42197;BMP280;27866;48.146;17.098;2022-09-13T21:55:45;98964.25;;;21.32
42197;BMP280;27866;48.146;17.098;2022-09-13T21:59:57;98964.50;;;21.37
42197;BMP280;27866;48.146;17.098;2022-09-13T22:04:17;98965.13;;;21.39
42197;BMP280;27866;48.146;17.098;2022-09-13T22:08:31;98950.97;;;21.40
42197;BMP280;27866;48.146;17.098;2022-09-13T22:12:43;98953.22;;;21.22
42197;BMP280;27866;48.146;17.098;2022-09-13T22:16:55;98954.50;;;21.06
42197;BMP280;27866;48.146;17.098;2022-09-13T22:21:13;98945.69;;;20.99
42197;BMP280;27866;48.146;17.098;2022-09-13T22:25:25;98944.91;;;20.85
42197;BMP280;27866;48.146;17.098;2022-09-13T22:29:36;98945.22;;;20.75
42197;BMP280;27866;48.146;17.098;2022-09-13T22:33:48;98933.34;;;20.65
42197;BMP280;27866;48.146;17.098;2022-09-13T22:38:00;98937.09;;;20.57
42197;BMP280;27866;48.146;17.098;2022-09-13T22:42:12;98937.19;;;20.49
42197;BMP280;27866;48.146;17.098;2022-09-13T22:46:28;98940.19;;;20.46
42197;BMP280;27866;48.146;17.098;2022-09-13T22:50:40;98947.81;;;20.41
42197;BMP280;27866;48.146;17.098;2022-09-13T22:54:51;98938.75;;;20.30
42197;BMP280;27866;48.146;17.098;2022-09-13T22:59:11;98941.41;;;20.30
42197;BMP280;27866;48.146;17.098;2022-09-13T23:03:24;98951.81;;;20.23
42197;BMP280;27866;48.146;17.098;2022-09-13T23:07:35;98960.59;;;20.16
42197;BMP280;27866;48.146;17.098;2022-09-13T23:11:46;98960.97;;;20.13
42197;BMP280;27866;48.146;17.098;2022-09-13T23:16:02;98961.16;;;20.12
42197;BMP280;27866;48.146;17.098;2022-09-13T23:20:14;98964.31;;;20.07
42197;BMP280;27866;48.146;17.098;2022-09-13T23:24:25;98973.81;;;20.08
42197;BMP280;27866;48.146;17.098;2022-09-13T23:28:38;98964.66;;;20.04
42197;BMP280;27866;48.146;17.098;2022-09-13T23:32:49;98972.09;;;20.01
42197;BMP280;27866;48.146;17.098;2022-09-13T23:37:01;98976.38;;;20.02
42197;BMP280;27866;48.146;17.098;2022-09-13T23:41:13;98969.56;;;20.07
42197;BMP280;27866;48.146;17.098;2022-09-13T23:45:26;98971.28;;;20.15
42197;BMP280;27866;48.146;17.098;2022-09-13T23:49:37;98970.84;;;20.11
42197;BMP280;27866;48.146;17.098;2022-09-13T23:53:51;98961.41;;;20.02
42197;BMP280;27866;48.146;17.098;2022-09-13T23:58:03;98958.13;;;20.01
